Aérodrome :







RETROUVEZ-NOUS SUR...

 
LOGIN :

S'inscrire | Disclaimer

   EN    FR    IT 

 









Légende :    VFR   VFR Marginal   IFR   IFR Intensif   IFR Très Intensif
Visi : 
Plafond : 
>= 8 km
>= 3000ft
5 à 8 km
1000 à 3000 ft
1500m à 5 km
500 à 1000 ft
800 à 1500m
200 à 500 ft
< 800m
< 200 ft
Symboles :   Orages  Brouillard  Fortes neiges  Fortes précipitations  Vent > 20 kt






- Altitude de l'aérodrome : 271 ft


KBAF - Barnes Municipal

DERNIER METAR :
  • 020653Z AUTO 34009KT 10SM CLR 03/M02 A2970 RMK AO2 SLP061 T00281022

METARs EXPIRÉS :
  • 020553Z AUTO 32012KT 10SM CLR 03/M02 A2971 RMK AO2 SLP065 T00331022 10078 20033 58007
  • 020453Z 35010KT 10SM CLR 04/M02 A2973 RMK AO2 SLP070 T00441022 401171017

TAF KBAF
Valide du 02 à 06h jusqu'au 03 à 06h UTC


020538Z 0206/0306 34008KT P6SM SCT250
FM021000 33010G18KT P6SM BKN150
FM021500 34015G26KT P6SM OVC070
FM021900 33016G26KT P6SM VCSH OVC060
FM022100 33017G26KT 5SM -RA BR OVC035
FM030400 34014KT 5SM -RA BR OVC025



MET'MAP, la Météo Aéronautique d'un coup d'oeil ! - Copyright ORBIFLY Décembre 2007 - Disclaimer

ORBIFLY MET'MAP TEAM :

Programmation & Développement : Alexandra Zaïnal
Sur une idée originale de : Baudouin d'Aumeries
Assistance à la programmation : Marc-Olivier Méhu
Soutien technique & logistique : Manuel Goepfert

Contact : metmap@orbifly.com




SOURCES & CREDITS :

   NOAA